sensor_id;sensor_type;location;lat;lon;timestamp;P1;durP1;ratioP1;P2;durP2;ratioP2
23252;SDS011;11795;47.054;15.408;2022-10-17T00:00:00;26.0;;;22.8;;
23252;SDS011;11795;47.054;15.408;2022-10-17T00:02:00;33.7;;;26.0;;
23252;SDS011;11795;47.054;15.408;2022-10-17T00:04:00;33.7;;;26.0;;
23252;SDS011;11795;47.054;15.408;2022-10-17T00:06:03;29.0;;;24.1;;
23252;SDS011;11795;47.054;15.408;2022-10-17T00:08:00;29.0;;;24.1;;
23252;SDS011;11795;47.054;15.408;2022-10-17T00:10:00;29.0;;;24.1;;
23252;SDS011;11795;47.054;15.408;2022-10-17T00:12:01;32.2;;;26.1;;
23252;SDS011;11795;47.054;15.408;2022-10-17T00:14:00;32.2;;;26.1;;
23252;SDS011;11795;47.054;15.408;2022-10-17T00:16:00;30.1;;;25.2;;
23252;SDS011;11795;47.054;15.408;2022-10-17T00:18:00;30.1;;;25.2;;
23252;SDS011;11795;47.054;15.408;2022-10-17T00:20:00;30.1;;;25.2;;
23252;SDS011;11795;47.054;15.408;2022-10-17T00:22:00;30.0;;;25.7;;
23252;SDS011;11795;47.054;15.408;2022-10-17T00:24:00;30.0;;;25.7;;
23252;SDS011;11795;47.054;15.408;2022-10-17T00:26:00;29.3;;;25.7;;
23252;SDS011;11795;47.054;15.408;2022-10-17T00:28:00;29.3;;;25.7;;
23252;SDS011;11795;47.054;15.408;2022-10-17T00:30:00;29.3;;;25.7;;
23252;SDS011;11795;47.054;15.408;2022-10-17T00:32:00;29.9;;;25.6;;
23252;SDS011;11795;47.054;15.408;2022-10-17T00:34:00;29.9;;;25.6;;
23252;SDS011;11795;47.054;15.408;2022-10-17T00:36:02;28.3;;;24.9;;
23252;SDS011;11795;47.054;15.408;2022-10-17T00:38:00;28.3;;;24.9;;
23252;SDS011;11795;47.054;15.408;2022-10-17T00:40:00;28.3;;;24.9;;
23252;SDS011;11795;47.054;15.408;2022-10-17T00:42:00;27.1;;;24.2;;
23252;SDS011;11795;47.054;15.408;2022-10-17T00:44:01;27.1;;;24.2;;
23252;SDS011;11795;47.054;15.408;2022-10-17T00:46:00;32.8;;;26.9;;
23252;SDS011;11795;47.054;15.408;2022-10-17T00:48:02;32.8;;;26.9;;
23252;SDS011;11795;47.054;15.408;2022-10-17T00:50:00;32.8;;;26.9;;
23252;SDS011;11795;47.054;15.408;2022-10-17T00:52:00;30.9;;;26.5;;
23252;SDS011;11795;47.054;15.408;2022-10-17T00:54:00;30.9;;;26.5;;
23252;SDS011;11795;47.054;15.408;2022-10-17T00:56:00;29.1;;;24.8;;
23252;SDS011;11795;47.054;15.408;2022-10-17T00:58:01;29.1;;;24.8;;
23252;SDS011;11795;47.054;15.408;2022-10-17T01:00:01;29.1;;;24.8;;
23252;SDS011;11795;47.054;15.408;2022-10-17T01:02:01;29.0;;;24.1;;
23252;SDS011;11795;47.054;15.408;2022-10-17T01:04:00;29.0;;;24.1;;
23252;SDS011;11795;47.054;15.408;2022-10-17T01:06:00;27.9;;;24.9;;
23252;SDS011;11795;47.054;15.408;2022-10-17T01:08:00;27.9;;;24.9;;
23252;SDS011;11795;47.054;15.408;2022-10-17T01:10:00;27.9;;;24.9;;
23252;SDS011;11795;47.054;15.408;2022-10-17T01:12:02;27.2;;;24.2;;
23252;SDS011;11795;47.054;15.408;2022-10-17T01:14:00;27.2;;;24.2;;
23252;SDS011;11795;47.054;15.408;2022-10-17T01:16:02;28.5;;;24.3;;
23252;SDS011;11795;47.054;15.408;2022-10-17T01:18:03;28.5;;;24.3;;
23252;SDS011;11795;47.054;15.408;2022-10-17T01:20:08;28.5;;;24.3;;
23252;SDS011;11795;47.054;15.408;2022-10-17T01:22:00;28.3;;;24.6;;
23252;SDS011;11795;47.054;15.408;2022-10-17T01:24:09;28.3;;;24.6;;
23252;SDS011;11795;47.054;15.408;2022-10-17T01:26:02;28.3;;;24.6;;
23252;SDS011;11795;47.054;15.408;2022-10-17T01:28:04;28.1;;;24.6;;
23252;SDS011;11795;47.054;15.408;2022-10-17T01:30:04;28.1;;;24.6;;
23252;SDS011;11795;47.054;15.408;2022-10-17T01:32:00;28.5;;;23.9;;
23252;SDS011;11795;47.054;15.408;2022-10-17T01:34:01;28.5;;;23.9;;
23252;SDS011;11795;47.054;15.408;2022-10-17T01:36:00;28.5;;;23.9;;
23252;SDS011;11795;47.054;15.408;2022-10-17T01:38:01;27.5;;;23.6;;
23252;SDS011;11795;47.054;15.408;2022-10-17T01:40:02;27.5;;;23.6;;
23252;SDS011;11795;47.054;15.408;2022-10-17T01:42:00;31.3;;;24.8;;
23252;SDS011;11795;47.054;15.408;2022-10-17T01:44:02;31.3;;;24.8;;
23252;SDS011;11795;47.054;15.408;2022-10-17T01:46:02;31.3;;;24.8;;
23252;SDS011;11795;47.054;15.408;2022-10-17T01:48:03;29.3;;;25.6;;
23252;SDS011;11795;47.054;15.408;2022-10-17T01:50:01;29.3;;;25.6;;
23252;SDS011;11795;47.054;15.408;2022-10-17T01:52:01;29.0;;;24.5;;
23252;SDS011;11795;47.054;15.408;2022-10-17T01:54:01;29.0;;;24.5;;
23252;SDS011;11795;47.054;15.408;2022-10-17T01:56:01;29.0;;;24.5;;
23252;SDS011;11795;47.054;15.408;2022-10-17T01:58:01;28.4;;;24.9;;
23252;SDS011;11795;47.054;15.408;2022-10-17T02:00:00;28.4;;;24.9;;
23252;SDS011;11795;47.054;15.408;2022-10-17T02:02:00;26.2;;;23.3;;
23252;SDS011;11795;47.054;15.408;2022-10-17T02:04:00;26.2;;;23.3;;
23252;SDS011;11795;47.054;15.408;2022-10-17T02:06:00;26.2;;;23.3;;
23252;SDS011;11795;47.054;15.408;2022-10-17T02:08:00;27.5;;;24.5;;
23252;SDS011;11795;47.054;15.408;2022-10-17T02:10:00;27.5;;;24.5;;
23252;SDS011;11795;47.054;15.408;2022-10-17T02:12:10;26.8;;;24.0;;
23252;SDS011;11795;47.054;15.408;2022-10-17T02:14:08;26.8;;;24.0;;
23252;SDS011;11795;47.054;15.408;2022-10-17T02:16:11;26.8;;;24.0;;
23252;SDS011;11795;47.054;15.408;2022-10-17T02:18:03;28.7;;;24.4;;
23252;SDS011;11795;47.054;15.408;2022-10-17T02:20:01;28.7;;;24.4;;
23252;SDS011;11795;47.054;15.408;2022-10-17T02:22:03;28.0;;;24.9;;
23252;SDS011;11795;47.054;15.408;2022-10-17T02:24:03;28.0;;;24.9;;
23252;SDS011;11795;47.054;15.408;2022-10-17T02:26:02;28.0;;;24.9;;
23252;SDS011;11795;47.054;15.408;2022-10-17T02:28:03;26.1;;;23.3;;
23252;SDS011;11795;47.054;15.408;2022-10-17T02:30:02;26.1;;;23.3;;
23252;SDS011;11795;47.054;15.408;2022-10-17T02:32:01;27.2;;;23.6;;
23252;SDS011;11795;47.054;15.408;2022-10-17T02:34:00;27.2;;;23.6;;
23252;SDS011;11795;47.054;15.408;2022-10-17T02:36:01;27.2;;;23.6;;
23252;SDS011;11795;47.054;15.408;2022-10-17T02:38:00;26.8;;;23.4;;
23252;SDS011;11795;47.054;15.408;2022-10-17T02:40:00;26.8;;;23.4;;
23252;SDS011;11795;47.054;15.408;2022-10-17T02:42:01;30.2;;;24.9;;
23252;SDS011;11795;47.054;15.408;2022-10-17T02:44:00;30.2;;;24.9;;
23252;SDS011;11795;47.054;15.408;2022-10-17T02:46:00;30.2;;;24.9;;
23252;SDS011;11795;47.054;15.408;2022-10-17T02:48:01;30.8;;;25.7;;
23252;SDS011;11795;47.054;15.408;2022-10-17T02:50:00;30.8;;;25.7;;
23252;SDS011;11795;47.054;15.408;2022-10-17T02:52:01;27.8;;;24.8;;
23252;SDS011;11795;47.054;15.408;2022-10-17T02:54:02;27.8;;;24.8;;
23252;SDS011;11795;47.054;15.408;2022-10-17T02:56:01;27.8;;;24.8;;
23252;SDS011;11795;47.054;15.408;2022-10-17T02:58:01;28.3;;;24.6;;
23252;SDS011;11795;47.054;15.408;2022-10-17T03:00:00;28.3;;;24.6;;
23252;SDS011;11795;47.054;15.408;2022-10-17T03:02:01;27.0;;;24.1;;
23252;SDS011;11795;47.054;15.408;2022-10-17T03:04:04;27.0;;;24.1;;
23252;SDS011;11795;47.054;15.408;2022-10-17T03:06:00;27.0;;;24.1;;
23252;SDS011;11795;47.054;15.408;2022-10-17T03:08:00;25.8;;;23.1;;
23252;SDS011;11795;47.054;15.408;2022-10-17T03:10:00;25.8;;;23.1;;
23252;SDS011;11795;47.054;15.408;2022-10-17T03:12:00;27.3;;;24.3;;
23252;SDS011;11795;47.054;15.408;2022-10-17T03:14:00;27.3;;;24.3;;
23252;SDS011;11795;47.054;15.408;2022-10-17T03:16:00;27.3;;;24.3;;
23252;SDS011;11795;47.054;15.408;2022-10-17T03:18:00;28.1;;;25.1;;
23252;SDS011;11795;47.054;15.408;2022-10-17T03:20:00;28.1;;;25.1;;
23252;SDS011;11795;47.054;15.408;2022-10-17T03:22:00;29.2;;;25.5;;
23252;SDS011;11795;47.054;15.408;2022-10-17T03:24:00;29.2;;;25.5;;
23252;SDS011;11795;47.054;15.408;2022-10-17T03:26:01;29.2;;;25.5;;
23252;SDS011;11795;47.054;15.408;2022-10-17T03:28:00;27.1;;;24.2;;
23252;SDS011;11795;47.054;15.408;2022-10-17T03:30:00;27.1;;;24.2;;
23252;SDS011;11795;47.054;15.408;2022-10-17T03:32:00;26.3;;;23.5;;
23252;SDS011;11795;47.054;15.408;2022-10-17T03:34:00;26.3;;;23.5;;
23252;SDS011;11795;47.054;15.408;2022-10-17T03:36:03;26.3;;;23.5;;
23252;SDS011;11795;47.054;15.408;2022-10-17T03:38:00;24.4;;;22.0;;
23252;SDS011;11795;47.054;15.408;2022-10-17T03:40:00;24.4;;;22.0;;
23252;SDS011;11795;47.054;15.408;2022-10-17T03:42:00;24.9;;;22.3;;
23252;SDS011;11795;47.054;15.408;2022-10-17T03:44:00;24.9;;;22.3;;
23252;SDS011;11795;47.054;15.408;2022-10-17T03:46:00;24.9;;;22.3;;
23252;SDS011;11795;47.054;15.408;2022-10-17T03:48:00;23.5;;;21.1;;
23252;SDS011;11795;47.054;15.408;2022-10-17T03:50:00;23.5;;;21.1;;
23252;SDS011;11795;47.054;15.408;2022-10-17T03:52:00;23.4;;;21.0;;
23252;SDS011;11795;47.054;15.408;2022-10-17T03:54:00;23.4;;;21.0;;
23252;SDS011;11795;47.054;15.408;2022-10-17T03:56:07;23.4;;;21.0;;
23252;SDS011;11795;47.054;15.408;2022-10-17T03:58:00;25.6;;;22.8;;
23252;SDS011;11795;47.054;15.408;2022-10-17T04:00:00;25.6;;;22.8;;
23252;SDS011;11795;47.054;15.408;2022-10-17T04:02:00;26.0;;;23.3;;
23252;SDS011;11795;47.054;15.408;2022-10-17T04:04:00;26.0;;;23.3;;
23252;SDS011;11795;47.054;15.408;2022-10-17T04:06:00;26.0;;;23.3;;
23252;SDS011;11795;47.054;15.408;2022-10-17T04:08:00;24.8;;;22.2;;
23252;SDS011;11795;47.054;15.408;2022-10-17T04:10:00;24.8;;;22.2;;
23252;SDS011;11795;47.054;15.408;2022-10-17T04:12:00;25.7;;;23.0;;
23252;SDS011;11795;47.054;15.408;2022-10-17T04:14:00;25.7;;;23.0;;
23252;SDS011;11795;47.054;15.408;2022-10-17T04:16:00;25.7;;;23.0;;
23252;SDS011;11795;47.054;15.408;2022-10-17T04:18:00;23.5;;;21.2;;
23252;SDS011;11795;47.054;15.408;2022-10-17T04:20:00;23.5;;;21.2;;
23252;SDS011;11795;47.054;15.408;2022-10-17T04:22:02;22.8;;;20.5;;
23252;SDS011;11795;47.054;15.408;2022-10-17T04:24:00;22.8;;;20.5;;
23252;SDS011;11795;47.054;15.408;2022-10-17T04:26:00;22.8;;;20.5;;
23252;SDS011;11795;47.054;15.408;2022-10-17T04:28:00;23.7;;;21.3;;
23252;SDS011;11795;47.054;15.408;2022-10-17T04:30:00;23.7;;;21.3;;
23252;SDS011;11795;47.054;15.408;2022-10-17T04:32:00;24.2;;;21.7;;
23252;SDS011;11795;47.054;15.408;2022-10-17T04:34:00;24.2;;;21.7;;
23252;SDS011;11795;47.054;15.408;2022-10-17T04:36:00;24.2;;;21.7;;
23252;SDS011;11795;47.054;15.408;2022-10-17T04:38:00;25.2;;;22.5;;
23252;SDS011;11795;47.054;15.408;2022-10-17T04:40:00;25.2;;;22.5;;
23252;SDS011;11795;47.054;15.408;2022-10-17T04:42:00;27.8;;;24.4;;
23252;SDS011;11795;47.054;15.408;2022-10-17T04:44:00;27.8;;;24.4;;
23252;SDS011;11795;47.054;15.408;2022-10-17T04:46:00;27.8;;;24.4;;
23252;SDS011;11795;47.054;15.408;2022-10-17T04:48:00;27.5;;;23.8;;
23252;SDS011;11795;47.054;15.408;2022-10-17T04:50:00;27.5;;;23.8;;
23252;SDS011;11795;47.054;15.408;2022-10-17T04:52:00;26.4;;;23.6;;
23252;SDS011;11795;47.054;15.408;2022-10-17T04:54:00;26.4;;;23.6;;
23252;SDS011;11795;47.054;15.408;2022-10-17T04:56:00;26.4;;;23.6;;
23252;SDS011;11795;47.054;15.408;2022-10-17T04:58:00;29.5;;;26.4;;
23252;SDS011;11795;47.054;15.408;2022-10-17T05:00:00;29.5;;;26.4;;
23252;SDS011;11795;47.054;15.408;2022-10-17T05:02:00;34.8;;;31.0;;
23252;SDS011;11795;47.054;15.408;2022-10-17T05:04:00;34.8;;;31.0;;
23252;SDS011;11795;47.054;15.408;2022-10-17T05:06:02;34.8;;;31.0;;
23252;SDS011;11795;47.054;15.408;2022-10-17T05:08:00;33.9;;;29.0;;
23252;SDS011;11795;47.054;15.408;2022-10-17T05:10:00;33.9;;;29.0;;
23252;SDS011;11795;47.054;15.408;2022-10-17T05:12:00;34.5;;;29.2;;
23252;SDS011;11795;47.054;15.408;2022-10-17T05:14:00;34.5;;;29.2;;
23252;SDS011;11795;47.054;15.408;2022-10-17T05:16:00;34.5;;;29.2;;
23252;SDS011;11795;47.054;15.408;2022-10-17T05:18:00;31.9;;;27.8;;
23252;SDS011;11795;47.054;15.408;2022-10-17T05:20:00;31.9;;;27.8;;
23252;SDS011;11795;47.054;15.408;2022-10-17T05:22:00;27.7;;;24.8;;
23252;SDS011;11795;47.054;15.408;2022-10-17T05:24:00;27.7;;;24.8;;
23252;SDS011;11795;47.054;15.408;2022-10-17T05:26:00;27.7;;;24.8;;
23252;SDS011;11795;47.054;15.408;2022-10-17T05:28:00;30.4;;;26.0;;
23252;SDS011;11795;47.054;15.408;2022-10-17T05:30:00;30.4;;;26.0;;
23252;SDS011;11795;47.054;15.408;2022-10-17T05:32:00;28.7;;;25.6;;
23252;SDS011;11795;47.054;15.408;2022-10-17T05:34:00;28.7;;;25.6;;
23252;SDS011;11795;47.054;15.408;2022-10-17T05:36:00;28.7;;;25.6;;
23252;SDS011;11795;47.054;15.408;2022-10-17T05:38:00;26.0;;;23.2;;
23252;SDS011;11795;47.054;15.408;2022-10-17T05:40:00;26.0;;;23.2;;
23252;SDS011;11795;47.054;15.408;2022-10-17T05:42:00;26.1;;;23.3;;
23252;SDS011;11795;47.054;15.408;2022-10-17T05:44:00;26.1;;;23.3;;
23252;SDS011;11795;47.054;15.408;2022-10-17T05:46:02;26.1;;;23.3;;
23252;SDS011;11795;47.054;15.408;2022-10-17T05:48:00;24.1;;;21.4;;
23252;SDS011;11795;47.054;15.408;2022-10-17T05:50:00;24.1;;;21.4;;
23252;SDS011;11795;47.054;15.408;2022-10-17T05:52:00;27.1;;;24.0;;
23252;SDS011;11795;47.054;15.408;2022-10-17T05:54:00;27.1;;;24.0;;
23252;SDS011;11795;47.054;15.408;2022-10-17T05:56:00;27.1;;;24.0;;
23252;SDS011;11795;47.054;15.408;2022-10-17T05:58:00;28.4;;;24.3;;
23252;SDS011;11795;47.054;15.408;2022-10-17T06:00:00;28.4;;;24.3;;
23252;SDS011;11795;47.054;15.408;2022-10-17T06:02:00;30.6;;;25.4;;
23252;SDS011;11795;47.054;15.408;2022-10-17T06:04:00;30.6;;;25.4;;
23252;SDS011;11795;47.054;15.408;2022-10-17T06:06:04;30.6;;;25.4;;
23252;SDS011;11795;47.054;15.408;2022-10-17T06:08:00;28.1;;;24.1;;
23252;SDS011;11795;47.054;15.408;2022-10-17T06:10:00;28.1;;;24.1;;
23252;SDS011;11795;47.054;15.408;2022-10-17T06:12:00;33.2;;;25.9;;
23252;SDS011;11795;47.054;15.408;2022-10-17T06:14:00;33.2;;;25.9;;
23252;SDS011;11795;47.054;15.408;2022-10-17T06:16:00;33.2;;;25.9;;
23252;SDS011;11795;47.054;15.408;2022-10-17T06:18:00;35.3;;;27.7;;
23252;SDS011;11795;47.054;15.408;2022-10-17T06:20:00;35.3;;;27.7;;
23252;SDS011;11795;47.054;15.408;2022-10-17T06:22:00;31.0;;;26.8;;
23252;SDS011;11795;47.054;15.408;2022-10-17T06:24:00;31.0;;;26.8;;
23252;SDS011;11795;47.054;15.408;2022-10-17T06:26:00;31.0;;;26.8;;
23252;SDS011;11795;47.054;15.408;2022-10-17T06:28:00;28.8;;;24.3;;
23252;SDS011;11795;47.054;15.408;2022-10-17T06:30:00;28.8;;;24.3;;
23252;SDS011;11795;47.054;15.408;2022-10-17T06:32:00;29.7;;;22.4;;
23252;SDS011;11795;47.054;15.408;2022-10-17T06:34:00;29.7;;;22.4;;
23252;SDS011;11795;47.054;15.408;2022-10-17T06:36:00;29.7;;;22.4;;
23252;SDS011;11795;47.054;15.408;2022-10-17T06:38:00;27.5;;;22.6;;
23252;SDS011;11795;47.054;15.408;2022-10-17T06:40:00;27.5;;;22.6;;
23252;SDS011;11795;47.054;15.408;2022-10-17T06:42:00;28.6;;;22.5;;
23252;SDS011;11795;47.054;15.408;2022-10-17T06:44:00;28.6;;;22.5;;
23252;SDS011;11795;47.054;15.408;2022-10-17T06:46:00;28.6;;;22.5;;
23252;SDS011;11795;47.054;15.408;2022-10-17T06:48:00;27.8;;;22.2;;
23252;SDS011;11795;47.054;15.408;2022-10-17T06:50:00;27.8;;;22.2;;
23252;SDS011;11795;47.054;15.408;2022-10-17T06:52:00;24.2;;;20.8;;
23252;SDS011;11795;47.054;15.408;2022-10-17T06:54:00;24.2;;;20.8;;
23252;SDS011;11795;47.054;15.408;2022-10-17T06:56:03;24.2;;;20.8;;
23252;SDS011;11795;47.054;15.408;2022-10-17T06:58:00;29.3;;;24.0;;
23252;SDS011;11795;47.054;15.408;2022-10-17T07:00:00;29.3;;;24.0;;
23252;SDS011;11795;47.054;15.408;2022-10-17T07:02:00;30.5;;;25.2;;
23252;SDS011;11795;47.054;15.408;2022-10-17T07:04:00;30.5;;;25.2;;
23252;SDS011;11795;47.054;15.408;2022-10-17T07:06:00;30.5;;;25.2;;
23252;SDS011;11795;47.054;15.408;2022-10-17T07:08:00;24.5;;;21.9;;
23252;SDS011;11795;47.054;15.408;2022-10-17T07:10:00;24.5;;;21.9;;
23252;SDS011;11795;47.054;15.408;2022-10-17T07:12:00;23.8;;;21.2;;
23252;SDS011;11795;47.054;15.408;2022-10-17T07:14:00;23.8;;;21.2;;
23252;SDS011;11795;47.054;15.408;2022-10-17T07:16:00;23.8;;;21.2;;
23252;SDS011;11795;47.054;15.408;2022-10-17T07:18:00;24.1;;;20.3;;
23252;SDS011;11795;47.054;15.408;2022-10-17T07:20:00;24.1;;;20.3;;
23252;SDS011;11795;47.054;15.408;2022-10-17T07:22:00;23.1;;;20.6;;
23252;SDS011;11795;47.054;15.408;2022-10-17T07:24:00;23.1;;;20.6;;
23252;SDS011;11795;47.054;15.408;2022-10-17T07:26:00;23.1;;;20.6;;
23252;SDS011;11795;47.054;15.408;2022-10-17T07:28:01;24.6;;;20.9;;
23252;SDS011;11795;47.054;15.408;2022-10-17T07:30:00;24.6;;;20.9;;
23252;SDS011;11795;47.054;15.408;2022-10-17T07:32:00;23.0;;;20.5;;
23252;SDS011;11795;47.054;15.408;2022-10-17T07:34:00;23.0;;;20.5;;
23252;SDS011;11795;47.054;15.408;2022-10-17T07:36:00;23.0;;;20.5;;
23252;SDS011;11795;47.054;15.408;2022-10-17T07:38:00;22.4;;;20.0;;
23252;SDS011;11795;47.054;15.408;2022-10-17T07:40:00;22.4;;;20.0;;
23252;SDS011;11795;47.054;15.408;2022-10-17T07:42:00;26.1;;;21.4;;
23252;SDS011;11795;47.054;15.408;2022-10-17T07:44:00;26.1;;;21.4;;
23252;SDS011;11795;47.054;15.408;2022-10-17T07:46:00;26.1;;;21.4;;
23252;SDS011;11795;47.054;15.408;2022-10-17T07:48:00;21.7;;;19.4;;
23252;SDS011;11795;47.054;15.408;2022-10-17T07:50:00;21.7;;;19.4;;
23252;SDS011;11795;47.054;15.408;2022-10-17T07:52:00;23.8;;;21.2;;
23252;SDS011;11795;47.054;15.408;2022-10-17T07:54:00;23.8;;;21.2;;
23252;SDS011;11795;47.054;15.408;2022-10-17T07:56:02;23.8;;;21.2;;
23252;SDS011;11795;47.054;15.408;2022-10-17T07:58:00;23.8;;;21.2;;
23252;SDS011;11795;47.054;15.408;2022-10-17T08:00:00;23.8;;;21.2;;
23252;SDS011;11795;47.054;15.408;2022-10-17T08:02:00;22.8;;;20.5;;
23252;SDS011;11795;47.054;15.408;2022-10-17T08:04:00;22.8;;;20.5;;
23252;SDS011;11795;47.054;15.408;2022-10-17T08:06:00;22.8;;;20.5;;
23252;SDS011;11795;47.054;15.408;2022-10-17T08:08:00;25.0;;;21.2;;
23252;SDS011;11795;47.054;15.408;2022-10-17T08:10:00;25.0;;;21.2;;
23252;SDS011;11795;47.054;15.408;2022-10-17T08:12:00;25.0;;;20.6;;
23252;SDS011;11795;47.054;15.408;2022-10-17T08:14:00;24.0;;;20.6;;
23252;SDS011;11795;47.054;15.408;2022-10-17T08:16:00;24.0;;;20.6;;
23252;SDS011;11795;47.054;15.408;2022-10-17T08:18:00;21.4;;;19.1;;
23252;SDS011;11795;47.054;15.408;2022-10-17T08:20:00;21.4;;;19.1;;
23252;SDS011;11795;47.054;15.408;2022-10-17T08:22:01;21.4;;;19.1;;
23252;SDS011;11795;47.054;15.408;2022-10-17T08:24:02;20.4;;;18.3;;
23252;SDS011;11795;47.054;15.408;2022-10-17T08:26:00;20.4;;;18.3;;
23252;SDS011;11795;47.054;15.408;2022-10-17T08:28:00;20.4;;;18.1;;
23252;SDS011;11795;47.054;15.408;2022-10-17T08:30:00;20.4;;;18.1;;
23252;SDS011;11795;47.054;15.408;2022-10-17T08:32:00;20.4;;;18.1;;
23252;SDS011;11795;47.054;15.408;2022-10-17T08:34:00;19.6;;;17.6;;
23252;SDS011;11795;47.054;15.408;2022-10-17T08:36:00;19.6;;;17.6;;
23252;SDS011;11795;47.054;15.408;2022-10-17T08:38:00;22.6;;;20.2;;
23252;SDS011;11795;47.054;15.408;2022-10-17T08:40:00;22.6;;;20.2;;
23252;SDS011;11795;47.054;15.408;2022-10-17T08:42:03;22.6;;;20.2;;
23252;SDS011;11795;47.054;15.408;2022-10-17T08:44:02;24.4;;;21.1;;
23252;SDS011;11795;47.054;15.408;2022-10-17T08:46:02;24.4;;;21.1;;
23252;SDS011;11795;47.054;15.408;2022-10-17T08:48:00;23.1;;;20.4;;
23252;SDS011;11795;47.054;15.408;2022-10-17T08:50:01;23.1;;;20.4;;
23252;SDS011;11795;47.054;15.408;2022-10-17T08:52:02;23.1;;;20.4;;
23252;SDS011;11795;47.054;15.408;2022-10-17T08:54:02;23.3;;;20.4;;
23252;SDS011;11795;47.054;15.408;2022-10-17T08:56:01;23.3;;;20.4;;
23252;SDS011;11795;47.054;15.408;2022-10-17T08:58:00;23.8;;;19.7;;
23252;SDS011;11795;47.054;15.408;2022-10-17T09:00:00;23.8;;;19.7;;
23252;SDS011;11795;47.054;15.408;2022-10-17T09:02:01;23.8;;;19.7;;
23252;SDS011;11795;47.054;15.408;2022-10-17T09:04:05;21.0;;;18.8;;
23252;SDS011;11795;47.054;15.408;2022-10-17T09:06:04;21.0;;;18.8;;
23252;SDS011;11795;47.054;15.408;2022-10-17T09:08:03;26.2;;;20.2;;
23252;SDS011;11795;47.054;15.408;2022-10-17T09:10:03;26.2;;;20.2;;
23252;SDS011;11795;47.054;15.408;2022-10-17T09:12:02;26.2;;;20.2;;
23252;SDS011;11795;47.054;15.408;2022-10-17T09:14:03;24.3;;;20.2;;
23252;SDS011;11795;47.054;15.408;2022-10-17T09:16:05;24.3;;;20.2;;
23252;SDS011;11795;47.054;15.408;2022-10-17T09:18:01;23.1;;;19.5;;
23252;SDS011;11795;47.054;15.408;2022-10-17T09:20:02;23.1;;;19.5;;
23252;SDS011;11795;47.054;15.408;2022-10-17T09:22:00;23.1;;;19.5;;
23252;SDS011;11795;47.054;15.408;2022-10-17T09:24:00;22.3;;;19.9;;
23252;SDS011;11795;47.054;15.408;2022-10-17T09:26:00;22.3;;;19.9;;
23252;SDS011;11795;47.054;15.408;2022-10-17T09:28:02;21.6;;;19.3;;
23252;SDS011;11795;47.054;15.408;2022-10-17T09:30:11;21.6;;;19.3;;
23252;SDS011;11795;47.054;15.408;2022-10-17T09:32:01;21.6;;;19.3;;
23252;SDS011;11795;47.054;15.408;2022-10-17T09:34:00;22.4;;;20.1;;
23252;SDS011;11795;47.054;15.408;2022-10-17T09:36:00;22.4;;;20.1;;
23252;SDS011;11795;47.054;15.408;2022-10-17T09:38:00;19.7;;;17.6;;
23252;SDS011;11795;47.054;15.408;2022-10-17T09:40:00;19.7;;;17.6;;
23252;SDS011;11795;47.054;15.408;2022-10-17T09:42:00;19.7;;;17.6;;
23252;SDS011;11795;47.054;15.408;2022-10-17T09:44:07;20.0;;;17.9;;
23252;SDS011;11795;47.054;15.408;2022-10-17T09:46:02;20.0;;;17.9;;
23252;SDS011;11795;47.054;15.408;2022-10-17T09:48:03;19.5;;;17.1;;
23252;SDS011;11795;47.054;15.408;2022-10-17T09:50:00;19.5;;;17.1;;
23252;SDS011;11795;47.054;15.408;2022-10-17T09:52:00;19.5;;;17.1;;
23252;SDS011;11795;47.054;15.408;2022-10-17T09:54:00;20.7;;;17.9;;
23252;SDS011;11795;47.054;15.408;2022-10-17T09:56:00;20.7;;;17.9;;
23252;SDS011;11795;47.054;15.408;2022-10-17T09:58:01;18.7;;;16.3;;
23252;SDS011;11795;47.054;15.408;2022-10-17T10:00:01;18.7;;;16.3;;
23252;SDS011;11795;47.054;15.408;2022-10-17T10:02:11;18.7;;;16.3;;
23252;SDS011;11795;47.054;15.408;2022-10-17T10:04:08;18.0;;;16.2;;
23252;SDS011;11795;47.054;15.408;2022-10-17T10:06:01;18.0;;;16.2;;
23252;SDS011;11795;47.054;15.408;2022-10-17T10:08:00;21.4;;;16.5;;
23252;SDS011;11795;47.054;15.408;2022-10-17T10:10:02;21.4;;;16.5;;
23252;SDS011;11795;47.054;15.408;2022-10-17T10:12:02;21.4;;;16.5;;
23252;SDS011;11795;47.054;15.408;2022-10-17T10:14:02;16.2;;;14.5;;
23252;SDS011;11795;47.054;15.408;2022-10-17T10:18:00;17.3;;;15.5;;
23252;SDS011;11795;47.054;15.408;2022-10-17T10:20:00;17.3;;;15.5;;
23252;SDS011;11795;47.054;15.408;2022-10-17T10:22:00;17.3;;;15.5;;
23252;SDS011;11795;47.054;15.408;2022-10-17T10:24:02;18.6;;;16.0;;
23252;SDS011;11795;47.054;15.408;2022-10-17T10:26:00;18.6;;;16.0;;
23252;SDS011;11795;47.054;15.408;2022-10-17T10:28:00;17.4;;;15.7;;
23252;SDS011;11795;47.054;15.408;2022-10-17T10:30:00;17.4;;;15.7;;
23252;SDS011;11795;47.054;15.408;2022-10-17T10:32:08;17.4;;;15.7;;
23252;SDS011;11795;47.054;15.408;2022-10-17T10:36:01;17.0;;;15.3;;
23252;SDS011;11795;47.054;15.408;2022-10-17T10:38:01;16.7;;;15.1;;
23252;SDS011;11795;47.054;15.408;2022-10-17T10:40:00;16.7;;;15.1;;
23252;SDS011;11795;47.054;15.408;2022-10-17T10:42:00;16.7;;;15.1;;
23252;SDS011;11795;47.054;15.408;2022-10-17T10:44:00;18.3;;;16.4;;
23252;SDS011;11795;47.054;15.408;2022-10-17T10:46:00;18.3;;;16.4;;
23252;SDS011;11795;47.054;15.408;2022-10-17T10:48:00;16.9;;;15.1;;
23252;SDS011;11795;47.054;15.408;2022-10-17T10:52:00;16.9;;;15.1;;
23252;SDS011;11795;47.054;15.408;2022-10-17T10:54:01;16.9;;;15.3;;
23252;SDS011;11795;47.054;15.408;2022-10-17T10:56:02;16.9;;;15.3;;
23252;SDS011;11795;47.054;15.408;2022-10-17T10:58:00;16.0;;;14.5;;
23252;SDS011;11795;47.054;15.408;2022-10-17T11:00:02;16.0;;;14.5;;
23252;SDS011;11795;47.054;15.408;2022-10-17T11:02:02;16.0;;;14.5;;
23252;SDS011;11795;47.054;15.408;2022-10-17T11:04:05;16.2;;;14.5;;
23252;SDS011;11795;47.054;15.408;2022-10-17T11:06:02;16.2;;;14.5;;
23252;SDS011;11795;47.054;15.408;2022-10-17T11:08:02;17.0;;;15.3;;
23252;SDS011;11795;47.054;15.408;2022-10-17T11:10:02;17.0;;;15.3;;
23252;SDS011;11795;47.054;15.408;2022-10-17T11:12:03;17.0;;;15.3;;
23252;SDS011;11795;47.054;15.408;2022-10-17T11:14:02;17.0;;;15.3;;
23252;SDS011;11795;47.054;15.408;2022-10-17T11:16:01;17.0;;;15.3;;
23252;SDS011;11795;47.054;15.408;2022-10-17T11:18:01;16.8;;;15.2;;
23252;SDS011;11795;47.054;15.408;2022-10-17T11:20:09;16.8;;;15.2;;
23252;SDS011;11795;47.054;15.408;2022-10-17T11:22:02;16.8;;;15.2;;
23252;SDS011;11795;47.054;15.408;2022-10-17T11:24:02;18.7;;;16.7;;
23252;SDS011;11795;47.054;15.408;2022-10-17T11:26:01;18.7;;;16.7;;
23252;SDS011;11795;47.054;15.408;2022-10-17T11:28:00;17.6;;;15.7;;
23252;SDS011;11795;47.054;15.408;2022-10-17T11:30:00;17.6;;;15.7;;
23252;SDS011;11795;47.054;15.408;2022-10-17T11:32:01;17.6;;;15.7;;
23252;SDS011;11795;47.054;15.408;2022-10-17T11:34:00;15.9;;;14.2;;
23252;SDS011;11795;47.054;15.408;2022-10-17T11:36:01;15.9;;;14.2;;
23252;SDS011;11795;47.054;15.408;2022-10-17T11:38:02;15.1;;;13.6;;
23252;SDS011;11795;47.054;15.408;2022-10-17T11:40:01;15.1;;;13.6;;
23252;SDS011;11795;47.054;15.408;2022-10-17T11:42:01;15.1;;;13.6;;
23252;SDS011;11795;47.054;15.408;2022-10-17T11:44:02;16.3;;;14.7;;
23252;SDS011;11795;47.054;15.408;2022-10-17T11:46:01;16.3;;;14.7;;
23252;SDS011;11795;47.054;15.408;2022-10-17T11:48:00;16.4;;;14.8;;
23252;SDS011;11795;47.054;15.408;2022-10-17T11:50:02;16.4;;;14.8;;
23252;SDS011;11795;47.054;15.408;2022-10-17T11:52:03;16.4;;;14.8;;
23252;SDS011;11795;47.054;15.408;2022-10-17T11:54:01;15.4;;;14.0;;
23252;SDS011;11795;47.054;15.408;2022-10-17T11:56:00;15.4;;;14.0;;